Latest Coastal Weather Observations for Derby

IDW60701

Issued at 8:04 pm WST Friday 29 July 2016 (issued every 10 minutes, with the page automatically refreshed every 10 minutes)

About coastal observations | Map of coastal stations | Coastal observations for WA | Marine services | Other Formats
Station Details ID: 003032 Name: DERBY AERO Lat: -17.37 Lon: 123.66 Height: 6.2 m
Data from the previous 72 hours. | See also: Recent months at Derby
Date/Time
WST
Temp
°C
Wind Pressure Rain since
9am
mm
Weather Cloud Vis
km
Sea
Height
m
Swell
Dir  Spd
kts
Gust
kts
hPa Trend Height
m
Period
s
Dir
29/08:00pm 24.1 SE 7 8 1015.2 - 0.0 - - - - - - -
29/07:30pm 25.0 SE 7 8 1014.9 - 0.0 - - - - - - -
29/07:00pm 23.7 ESE 4 4 1014.5 - 0.0 - - - - - - -
29/06:30pm 25.9 N 3 4 1014.0 - 0.0 - - - - - - -
29/06:00pm 26.4 NNW 2 4 1013.5 - 0.0 - - - - - - -
29/05:30pm 28.3 N 3 6 1013.1 - 0.0 - - - - - - -
29/05:00pm 31.4 ESE 9 11 1012.8 - 0.0 - - - - - - -
29/04:30pm 32.0 ESE 8 10 1012.7 - 0.0 - - - - - - -
29/04:00pm 32.6 SE 7 11 1012.6 - 0.0 - - - - - - -
29/03:30pm 32.6 SSE 5 9 1012.6 - 0.0 - - - - - - -
29/03:00pm 32.5 ESE 5 12 1012.6 - 0.0 - - - - - - -
29/02:30pm 32.4 E 9 12 1012.6 - 0.0 - - - - - - -
29/02:00pm 32.1 ESE 8 13 1012.9 - 0.0 - - - - - - -
29/01:30pm 31.6 SSE 8 13 1013.1 - 0.0 - - - - - - -
29/01:00pm 32.2 E 7 14 1013.7 - 0.0 - - - - - - -
29/12:30pm 31.1 ESE 10 14 1014.3 - 0.0 - - - - - - -
29/12:00pm 30.2 SE 9 13 1015.0 - 0.0 - - - - - - -
29/11:30am 30.1 E 9 14 1015.6 - 0.0 - - - - - - -
29/11:00am 28.9 SE 10 14 1016.0 - 0.0 - - - - - - -
29/10:30am 28.9 E 10 17 1016.6 - 0.0 - - - - - - -
29/10:00am 27.6 ENE 10 15 1017.0 - 0.0 - - - - - - -
29/09:30am 26.9 E 13 18 1017.4 - 0.0 - - - - - - -
29/09:00am 25.9 ESE 11 15 1017.7 - 0.0 - - - - - - -
29/08:30am 24.5 E 11 15 1017.6 - 0.0 - - - - - - -
29/08:00am 22.8 ESE 9 11 1017.5 - 0.0 - - - - - - -
29/07:30am 20.6 SE 5 7 1017.4 - 0.0 - - - - - - -
29/07:00am 18.9 ESE 5 5 1017.2 - 0.0 - - - - - - -
29/06:30am 17.3 SE 5 7 1017.0 - 0.0 - - - - - - -
29/06:00am 17.9 SE 5 7 1016.6 - 0.0 - - - - - - -
29/05:30am 18.4 SE 7 9 1016.2 - 0.0 - - - - - - -
29/05:00am 17.7 SSE 6 8 1016.0 - 0.0 - - - - - - -
29/04:30am 19.2 SE 8 10 1015.7 - 0.0 - - - - - - -
29/04:00am 19.8 SE 8 10 1015.5 - 0.0 - - - - - - -
29/03:30am 20.1 SE 9 11 1015.5 - 0.0 - - - - - - -
29/03:00am 19.7 SE 9 12 1015.6 - 0.0 - - - - - - -
29/02:30am 19.1 SE 7 9 1015.6 - 0.0 - - - - - - -
29/02:00am 18.2 SE 6 7 1015.6 - 0.0 - - - - - - -
29/01:30am 18.7 SSE 6 7 1015.7 - 0.0 - - - - - - -
29/01:00am 19.1 SSE 7 8 1015.8 - 0.0 - - - - - - -
29/12:30am 19.6 SSE 7 7 1015.8 - 0.0 - - - - - - -
29/12:00am 21.1 SE 7 9 1015.7 - 0.0 - - - - - - -
 
Date/Time
WST
Temp
°C
Wind Pressure Rain since
9am
mm
Weather Cloud Vis
km
Sea
Height
m
Swell
Dir  Spd
kts
Gust
kts
hPa Trend Height
m
Period
s
Dir
28/11:30pm 21.6 SE 7 9 1015.8 - 0.0 - - - - - - -
28/11:00pm 22.3 SE 8 10 1015.9 - 0.0 - - - - - - -
28/10:30pm 20.2 SSE 7 7 1016.0 - 0.0 - - - - - - -
28/10:00pm 21.6 SE 6 8 1016.1 - 0.0 - - - - - - -
28/09:30pm 23.5 SE 7 8 1016.2 - 0.0 - - - - - - -
28/09:00pm 24.1 SE 7 8 1016.2 - 0.0 - - - - - - -
28/08:30pm 24.7 SE 8 9 1016.2 - 0.0 - - - - - - -
28/08:00pm 25.4 SE 8 10 1015.9 - 0.0 - - - - - - -
28/07:30pm 26.1 SE 9 11 1015.6 - 0.0 - - - - - - -
28/07:00pm 26.7 SE 7 9 1015.3 - 0.0 - - - - - - -
28/06:30pm 28.0 SE 9 11 1014.8 - 0.0 - - - - - - -
28/06:00pm 28.8 SE 6 8 1014.5 - 0.0 - - - - - - -
28/05:30pm 30.0 SE 6 7 1014.1 - 0.0 - - - - - - -
28/05:00pm 31.6 ESE 7 9 1013.7 - 0.0 - - - - - - -
28/04:30pm 32.1 ESE 6 10 1013.5 - 0.0 - - - - - - -
28/04:00pm 32.6 ESE 6 13 1013.4 - 0.0 - - - - - - -
28/03:30pm 32.8 ENE 4 9 1013.4 - 0.0 - - - - - - -
28/03:00pm 32.4 E 8 12 1013.5 - 0.0 - - - - - - -
28/02:30pm 32.3 SSE 7 13 1013.7 - 0.0 - - - - - - -
28/02:00pm 32.3 SE 7 12 1014.0 - 0.0 - - - - - - -
28/01:30pm 32.1 SSE 7 13 1014.5 - 0.0 - - - - - - -
28/01:00pm 32.6 SE 6 13 1014.9 - 0.0 - - - - - - -
28/12:30pm 31.6 ESE 9 15 1015.5 - 0.0 - - - - - - -
28/12:00pm 31.3 SE 8 13 1016.3 - 0.0 - - - - - - -
28/11:30am 30.1 ESE 9 12 1016.9 - 0.0 - - - - - - -
28/11:00am 28.8 ESE 11 15 1017.4 - 0.0 - - - - - - -
28/10:30am 29.0 ESE 10 15 1017.8 - 0.0 - - - - - - -
28/10:00am 28.1 E 12 16 1018.2 - 0.0 - - - - - - -
28/09:30am 27.1 ENE 11 17 1018.6 - 0.0 - - - - - - -
28/09:00am 26.7 E 11 15 1018.8 - 0.0 - - - - - - -
28/08:30am 25.0 ESE 11 14 1019.2 - 0.0 - - - - - - -
28/08:00am 23.0 SSE 6 7 1019.1 - 0.0 - - - - - - -
28/07:30am 21.0 SE 6 8 1018.9 - 0.0 - - - - - - -
28/07:00am 19.5 SSE 5 6 1018.6 - 0.0 - - - - - - -
28/06:30am 18.6 SSE 5 6 1018.1 - 0.0 - - - - - - -
28/06:00am 19.9 SE 6 9 1017.9 - 0.0 - - - - - - -
28/05:30am 20.6 ESE 8 10 1017.2 - 0.0 - - - - - - -
28/05:00am 21.0 ESE 8 10 1017.0 - 0.0 - - - - - - -
28/04:30am 21.5 SE 8 10 1016.7 - 0.0 - - - - - - -
28/04:00am 22.0 SE 10 12 1016.4 - 0.0 - - - - - - -
28/03:30am 22.7 ESE 12 15 1016.3 - 0.0 - - - - - - -
28/03:00am 23.3 SE 12 15 1016.2 - 0.0 - - - - - - -
28/02:30am 23.7 ESE 11 15 1016.1 - 0.0 - - - - - - -
28/02:00am 23.9 ESE 11 14 1016.1 - 0.0 - - - - - - -
28/01:30am 24.4 SE 11 14 1016.1 - 0.0 - - - - - - -
28/01:00am 25.0 ESE 12 18 1015.9 - 0.0 - - - - - - -
28/12:30am 25.2 ESE 12 18 1015.9 - 0.0 - - - - - - -
28/12:00am 25.4 SE 11 16 1016.1 - 0.0 - - - - - - -
 
Date/Time
WST
Temp
°C
Wind Pressure Rain since
9am
mm
Weather Cloud Vis
km
Sea
Height
m
Swell
Dir  Spd
kts
Gust
kts
hPa Trend Height
m
Period
s
Dir
27/11:30pm 26.0 SE 12 17 1016.2 - 0.0 - - - - - - -
27/11:00pm 25.9 SE 10 12 1016.1 - 0.0 - - - - - - -
27/10:30pm 26.6 SE 11 14 1016.2 - 0.0 - - - - - - -
27/10:00pm 26.9 SE 11 14 1016.1 - 0.0 - - - - - - -
27/09:30pm 27.3 ESE 12 14 1016.1 - 0.0 - - - - - - -
27/09:00pm 27.9 SE 11 14 1015.9 - 0.0 - - - - - - -
27/08:30pm 28.2 SE 12 15 1015.7 - 0.0 - - - - - - -
27/08:00pm 28.0 SE 10 12 1015.5 - 0.0 - - - - - - -
27/07:30pm 28.4 SE 9 11 1015.1 - 0.0 - - - - - - -
27/07:00pm 28.9 SE 8 10 1014.7 - 0.0 - - - - - - -
27/06:30pm 29.8 SE 8 11 1014.3 - 0.0 - - - - - - -
27/06:00pm 30.7 SE 8 11 1013.9 - 0.0 - - - - - - -
27/05:30pm 32.0 ESE 11 15 1013.6 - 0.0 - - - - - - -
27/05:00pm 32.9 ESE 13 15 1013.2 - 0.0 - - - - - - -
27/04:30pm 33.7 ESE 12 16 1012.9 - 0.0 - - - - - - -
27/04:00pm 33.9 E 9 15 1012.7 - 0.0 - - - - - - -
27/03:30pm 34.2 ESE 9 12 1012.5 - 0.0 - - - - - - -
27/03:00pm 34.2 SE 9 12 1012.6 - 0.0 - - - - - - -
27/02:30pm 34.6 ENE 8 14 1012.7 - 0.0 - - - - - - -
27/02:00pm 33.7 ESE 13 17 1012.8 - 0.0 - - - - - - -
27/01:30pm 34.2 NE 10 14 1012.9 - 0.0 - - - - - - -
27/01:00pm 33.8 E 13 18 1013.4 - 0.0 - - - - - - -
27/12:30pm 33.4 ENE 10 16 1013.8 - 0.0 - - - - - - -
27/12:00pm 33.1 ENE 11 18 1014.2 - 0.0 - - - - - - -
27/11:30am 32.6 ENE 11 16 1014.6 - 0.0 - - - - - - -
27/11:00am 32.2 ENE 11 20 1014.9 - 0.0 - - - - - - -
27/10:30am 31.4 ENE 14 21 1015.4 - 0.0 - - - - - - -
27/10:15am 31.1 ENE 15 25 1015.5 - 0.0 - - - - - - -
27/10:00am 30.6 ENE 16 22 1015.6 - 0.0 - - - - - - -
27/09:35am 30.3 ENE 15 25 1015.8 - 0.0 - - - - - - -
27/09:30am 30.2 ENE 16 24 1015.8 - 0.0 - - - - - - -
27/09:00am 29.5 E 15 23 1015.8 - 0.0 - - - - - - -
27/08:30am 28.5 E 13 18 1015.6 - 0.0 - - - - - - -
27/08:00am 26.9 E 14 19 1015.4 - 0.0 - - - - - - -
27/07:30am 25.6 ESE 14 19 1015.2 - 0.0 - - - - - - -
27/07:00am 24.5 ESE 13 17 1015.0 - 0.0 - - - - - - -
27/06:30am 23.1 ESE 11 15 1014.8 - 0.0 - - - - - - -
27/06:00am 23.2 SE 12 15 1014.5 - 0.0 - - - - - - -
27/05:30am 23.6 SE 13 18 1013.9 - 0.0 - - - - - - -
27/05:00am 24.0 SE 13 18 1013.6 - 0.0 - - - - - - -
27/04:30am 24.1 SE 11 16 1013.3 - 0.0 - - - - - - -
27/04:00am 24.2 SE 9 12 1013.2 - 0.0 - - - - - - -
27/03:30am 23.3 SSE 9 11 1013.0 - 0.0 - - - - - - -
27/03:00am 21.0 SSE 7 9 1012.9 - 0.0 - - - - - - -
27/02:30am 21.2 S 7 9 1012.9 - 0.0 - - - - - - -
27/02:00am 21.7 S 8 9 1012.9 - 0.0 - - - - - - -
27/01:30am 22.0 SSE 8 9 1013.0 - 0.0 - - - - - - -
27/01:00am 21.8 SSE 7 8 1013.2 - 0.0 - - - - - - -
27/12:30am 22.1 SSE 7 8 1013.4 - 0.0 - - - - - - -
27/12:00am 21.1 S 6 7 1013.6 - 0.0 - - - - - - -
 
Date/Time
WST
Temp
°C
Wind Pressure Rain since
9am
mm
Weather Cloud Vis
km
Sea
Height
m
Swell
Dir  Spd
kts
Gust
kts
hPa Trend Height
m
Period
s
Dir
26/11:30pm 23.4 SSE 7 9 1013.8 - 0.0 - - - - - - -
26/11:00pm 23.5 SE 5 6 1013.7 - 0.0 - - - - - - -
26/10:30pm 24.2 SE 6 7 1013.7 - 0.0 - - - - - - -
26/10:00pm 23.0 SSE 5 6 1013.7 - 0.0 - - - - - - -
26/09:30pm 22.6 SE 3 4 1013.8 - 0.0 - - - - - - -
26/09:00pm 23.8 SSW 5 6 1013.8 - 0.0 - - - - - - -
26/08:30pm 24.7 CALM 0 0 1013.7 - 0.0 - - - - - - -

Other Formats:

Comma delimited format used in spreadsheet applications
http://www.bom.gov.au/fwo/IDW60701/IDW60701.95205.axf

JavaScript Object Notation format (JSON) in row-major order
http://www.bom.gov.au/fwo/IDW60701/IDW60701.95205.json